createdAt,value
2023-05-19T00:02:06.073Z,99.90
2023-05-19T00:04:33.547Z,99.90
2023-05-19T00:07:00.935Z,99.90
2023-05-19T00:09:27.887Z,99.90
2023-05-19T00:11:54.717Z,99.90
2023-05-19T00:14:21.646Z,99.90
2023-05-19T00:16:48.798Z,99.90
2023-05-19T00:19:16.894Z,99.90
2023-05-19T00:21:43.651Z,99.90
2023-05-19T00:24:10.257Z,99.90
2023-05-19T00:26:37.133Z,99.90
2023-05-19T00:29:03.754Z,99.90
2023-05-19T00:31:31.720Z,99.90
2023-05-19T00:33:58.457Z,99.90
2023-05-19T00:36:25.303Z,99.90
2023-05-19T00:38:51.938Z,99.90
2023-05-19T00:41:18.660Z,99.90
2023-05-19T00:43:45.590Z,99.90
2023-05-19T00:46:12.298Z,99.90
2023-05-19T00:48:39.176Z,99.90
2023-05-19T00:51:06.552Z,99.90
2023-05-19T00:53:33.992Z,99.90
2023-05-19T00:56:01.751Z,99.90
2023-05-19T00:58:30.733Z,99.90
2023-05-19T01:01:03.856Z,99.90
2023-05-19T01:03:36.197Z,99.90
2023-05-19T01:06:05.179Z,99.90
2023-05-19T01:08:32.997Z,99.90
2023-05-19T01:11:00.095Z,99.90
2023-05-19T01:13:28.650Z,99.90
2023-05-19T01:16:07.558Z,99.90
2023-05-19T01:19:14.147Z,99.90
2023-05-19T01:22:15.352Z,99.90
2023-05-19T01:25:10.338Z,99.90
2023-05-19T01:28:14.289Z,99.90
2023-05-19T01:30:42.612Z,99.90
2023-05-19T01:33:14.224Z,99.90
2023-05-19T01:35:42.793Z,99.90
2023-05-19T01:38:11.018Z,99.90
2023-05-19T01:40:39.462Z,99.90
2023-05-19T01:43:07.736Z,99.90
2023-05-19T01:45:34.812Z,99.90
2023-05-19T01:48:03.598Z,99.90
2023-05-19T01:50:31.135Z,99.90
2023-05-19T01:52:58.637Z,99.90
2023-05-19T01:55:25.617Z,99.90
2023-05-19T01:58:18.018Z,99.90
2023-05-19T02:01:13.353Z,99.90
2023-05-19T02:04:13.027Z,99.90
2023-05-19T02:06:49.446Z,99.90
2023-05-19T02:09:23.062Z,99.90
2023-05-19T02:11:59.461Z,99.90
2023-05-19T02:14:54.756Z,99.90
2023-05-19T02:17:25.868Z,99.90
2023-05-19T02:19:52.621Z,99.90
2023-05-19T02:22:19.213Z,99.90
2023-05-19T02:24:47.657Z,99.90
2023-05-19T02:27:14.294Z,99.90
2023-05-19T02:29:41.342Z,99.90
2023-05-19T02:32:08.282Z,99.90
2023-05-19T02:34:34.947Z,99.90
2023-05-19T02:37:02.002Z,99.90
2023-05-19T02:39:31.004Z,99.90
2023-05-19T02:41:57.597Z,99.90
2023-05-19T02:44:24.189Z,99.90
2023-05-19T02:46:50.880Z,99.90
2023-05-19T02:49:17.601Z,99.90
2023-05-19T02:51:44.219Z,99.90
2023-05-19T02:54:10.892Z,99.90
2023-05-19T02:56:37.516Z,99.90
2023-05-19T02:59:04.240Z,99.90
2023-05-19T03:01:32.620Z,99.90
2023-05-19T03:03:59.494Z,99.90
2023-05-19T03:06:26.204Z,99.90
2023-05-19T03:08:52.811Z,99.90
2023-05-19T03:11:19.489Z,99.90
2023-05-19T03:13:46.101Z,99.90
2023-05-19T03:16:14.011Z,99.90
2023-05-19T03:18:41.653Z,99.90
2023-05-19T03:21:08.346Z,99.90
2023-05-19T03:23:34.954Z,99.90
2023-05-19T03:26:01.547Z,99.90
2023-05-19T03:28:28.308Z,99.90
2023-05-19T03:30:54.975Z,99.90
2023-05-19T03:33:21.666Z,99.90
2023-05-19T03:35:48.439Z,99.90
2023-05-19T03:38:15.067Z,99.90
2023-05-19T03:40:41.813Z,99.90
2023-05-19T03:43:08.622Z,99.90
2023-05-19T03:45:35.444Z,99.90
2023-05-19T03:48:02.336Z,99.90
2023-05-19T03:50:29.069Z,99.90
2023-05-19T03:52:55.724Z,99.90
2023-05-19T03:55:22.462Z,99.90
2023-05-19T03:57:49.152Z,99.90
2023-05-19T04:00:16.665Z,99.90
2023-05-19T04:02:43.533Z,99.90
2023-05-19T04:05:10.876Z,99.90
2023-05-19T04:07:37.550Z,99.90
2023-05-19T04:10:08.085Z,99.90
2023-05-19T04:12:34.728Z,99.90
2023-05-19T04:15:01.401Z,99.90
2023-05-19T04:17:28.246Z,99.90
2023-05-19T04:19:55.312Z,99.90
2023-05-19T04:22:21.955Z,99.90
2023-05-19T04:24:48.957Z,99.90
2023-05-19T04:27:15.985Z,99.90
2023-05-19T04:29:42.682Z,99.90
2023-05-19T04:32:10.670Z,99.90
2023-05-19T04:34:40.397Z,99.90
2023-05-19T04:37:07.942Z,99.90
2023-05-19T04:39:34.739Z,99.90
2023-05-19T04:42:02.658Z,99.90
2023-05-19T04:44:30.081Z,99.90
2023-05-19T04:46:58.304Z,99.90
2023-05-19T04:49:25.030Z,99.90
2023-05-19T04:51:54.928Z,99.90
2023-05-19T04:54:22.356Z,99.90
2023-05-19T04:56:48.942Z,99.90
2023-05-19T04:59:15.625Z,99.90
2023-05-19T05:01:43.230Z,99.90
2023-05-19T05:04:10.022Z,99.90
2023-05-19T05:06:38.400Z,99.90
2023-05-19T05:09:05.045Z,99.90
2023-05-19T05:11:31.912Z,99.90
2023-05-19T05:13:58.815Z,99.90
2023-05-19T05:16:26.545Z,99.90
2023-05-19T05:18:53.468Z,99.90
2023-05-19T05:21:20.480Z,99.90
2023-05-19T05:23:47.377Z,99.90
2023-05-19T05:26:24.894Z,99.90
2023-05-19T05:28:51.563Z,99.90
2023-05-19T05:31:18.163Z,99.90
2023-05-19T05:33:45.422Z,99.90
2023-05-19T05:36:12.516Z,99.90
2023-05-19T05:38:39.146Z,99.90
2023-05-19T05:41:05.778Z,99.90
2023-05-19T05:43:32.402Z,99.90
2023-05-19T05:45:59.079Z,99.90
2023-05-19T05:48:25.996Z,99.90
2023-05-19T05:50:54.583Z,99.90
2023-05-19T05:53:21.799Z,99.90
2023-05-19T05:55:48.676Z,99.90
2023-05-19T05:58:17.029Z,99.90
2023-05-19T06:00:43.930Z,99.90
2023-05-19T06:03:11.235Z,99.90
2023-05-19T06:05:38.340Z,99.90
2023-05-19T06:08:05.212Z,99.90
2023-05-19T06:10:32.540Z,99.90
2023-05-19T06:12:59.391Z,99.90
2023-05-19T06:15:27.106Z,99.90
2023-05-19T06:17:54.655Z,99.90
2023-05-19T06:20:21.840Z,99.90
2023-05-19T06:22:48.469Z,99.90
2023-05-19T06:25:15.143Z,99.90
2023-05-19T06:27:41.929Z,99.90
2023-05-19T06:30:09.145Z,99.90
2023-05-19T06:32:35.794Z,99.90
2023-05-19T06:35:02.414Z,99.90
2023-05-19T06:37:29.017Z,99.90
2023-05-19T06:39:55.802Z,99.90
2023-05-19T06:42:22.854Z,99.90
2023-05-19T06:44:50.153Z,99.90
2023-05-19T06:47:17.670Z,99.90
2023-05-19T06:49:50.699Z,99.90
2023-05-19T06:52:17.678Z,99.90
2023-05-19T06:54:44.286Z,99.90
2023-05-19T06:57:10.956Z,99.90
2023-05-19T06:59:37.662Z,99.90
2023-05-19T07:02:04.791Z,99.90
2023-05-19T07:04:31.508Z,99.90
2023-05-19T07:06:58.654Z,99.90
2023-05-19T07:09:25.509Z,99.90
2023-05-19T07:11:52.142Z,99.90
2023-05-19T07:14:18.865Z,99.90
2023-05-19T07:16:45.612Z,99.90
2023-05-19T07:19:12.280Z,99.90
2023-05-19T07:21:39.074Z,99.90
2023-05-19T07:24:06.176Z,99.90
2023-05-19T07:26:32.785Z,99.90
2023-05-19T07:28:59.563Z,99.90
2023-05-19T07:31:26.435Z,99.90
2023-05-19T07:33:54.606Z,99.90
2023-05-19T07:36:21.675Z,99.60
2023-05-19T07:38:48.426Z,99.40
2023-05-19T07:41:15.135Z,99.10
2023-05-19T07:43:42.534Z,98.90
2023-05-19T07:46:09.175Z,98.80
2023-05-19T07:48:35.960Z,97.50
2023-05-19T07:51:02.607Z,98.00
2023-05-19T07:53:29.384Z,97.40
2023-05-19T07:55:58.356Z,96.30
2023-05-19T07:58:25.396Z,95.80
2023-05-19T08:00:53.175Z,95.70
2023-05-19T08:03:20.758Z,95.50
2023-05-19T08:05:47.814Z,95.80
2023-05-19T08:08:16.920Z,95.00
2023-05-19T08:10:43.680Z,95.10
2023-05-19T08:13:10.356Z,94.70
2023-05-19T08:15:37.307Z,94.20
2023-05-19T08:18:05.278Z,93.90
2023-05-19T08:20:32.765Z,94.60
2023-05-19T08:22:59.874Z,94.70
2023-05-19T08:25:26.501Z,95.20
2023-05-19T08:27:53.165Z,95.60
2023-05-19T08:30:19.946Z,95.00
2023-05-19T08:32:47.032Z,94.20
2023-05-19T08:35:13.803Z,93.30
2023-05-19T08:37:40.938Z,93.20
2023-05-19T08:40:11.827Z,92.80
2023-05-19T08:42:38.522Z,92.90
2023-05-19T08:45:05.790Z,92.30
2023-05-19T08:47:33.305Z,92.20
2023-05-19T08:50:07.690Z,91.70
2023-05-19T08:52:53.504Z,90.80
2023-05-19T08:55:38.624Z,91.10
2023-05-19T08:58:05.467Z,91.30
2023-05-19T09:00:33.599Z,91.30
2023-05-19T09:05:33.385Z,91.90
2023-05-19T09:08:02.818Z,90.90
2023-05-19T09:10:29.501Z,90.20
2023-05-19T09:12:58.882Z,90.70
2023-05-19T09:15:28.017Z,90.80
2023-05-19T09:18:09.596Z,90.60
2023-05-19T09:20:46.170Z,90.30
2023-05-19T09:23:14.982Z,90.20
2023-05-19T09:25:52.359Z,89.40
2023-05-19T09:28:32.143Z,87.20
2023-05-19T09:31:19.118Z,85.50
2023-05-19T09:33:46.296Z,84.20
2023-05-19T09:36:14.002Z,85.00
2023-05-19T09:38:41.253Z,83.20
2023-05-19T09:41:09.237Z,82.70
2023-05-19T09:43:36.443Z,84.00
2023-05-19T09:46:07.878Z,83.50
2023-05-19T09:48:36.396Z,81.10
2023-05-19T09:51:10.220Z,81.00
2023-05-19T09:53:38.090Z,81.20
2023-05-19T09:56:05.062Z,82.00
2023-05-19T09:58:35.061Z,81.80
2023-05-19T10:01:02.218Z,81.20
2023-05-19T10:03:29.775Z,79.90
2023-05-19T10:05:56.929Z,79.70
2023-05-19T10:08:26.452Z,79.30
2023-05-19T10:10:53.190Z,78.70
2023-05-19T10:13:21.300Z,80.30
2023-05-19T10:15:58.042Z,79.40
2023-05-19T10:18:27.201Z,79.10
2023-05-19T10:20:54.617Z,78.40
2023-05-19T10:23:22.211Z,79.00
2023-05-19T10:25:51.490Z,78.20
2023-05-19T10:28:21.079Z,79.00
2023-05-19T10:30:50.896Z,79.30
2023-05-19T10:33:20.030Z,79.50
2023-05-19T10:36:12.343Z,78.80
2023-05-19T10:38:46.012Z,76.70
2023-05-19T10:42:01.414Z,77.00
2023-05-19T10:44:56.368Z,77.20
2023-05-19T10:47:26.249Z,77.10
2023-05-19T10:49:56.265Z,76.90
2023-05-19T10:52:27.131Z,76.60
2023-05-19T10:54:54.777Z,76.60
2023-05-19T10:57:32.308Z,77.30
2023-05-19T11:00:02.105Z,78.00
2023-05-19T11:02:40.293Z,76.80
2023-05-19T11:05:16.511Z,77.40
2023-05-19T11:07:44.635Z,76.60
2023-05-19T11:10:14.459Z,77.30
2023-05-19T11:12:44.738Z,77.10
2023-05-19T11:15:15.604Z,76.30
2023-05-19T11:17:45.105Z,77.30
2023-05-19T11:20:23.908Z,77.60
2023-05-19T11:23:09.861Z,77.10
2023-05-19T11:25:48.181Z,76.70
2023-05-19T11:28:26.649Z,75.70
2023-05-19T11:30:57.763Z,75.20
2023-05-19T11:33:29.046Z,74.30
2023-05-19T11:35:59.815Z,74.00
2023-05-19T11:38:28.396Z,73.40
2023-05-19T11:40:55.860Z,74.20
2023-05-19T11:43:26.139Z,74.30
2023-05-19T11:45:54.658Z,74.40
2023-05-19T11:48:21.902Z,74.50
2023-05-19T11:50:48.610Z,75.20
2023-05-19T11:53:16.795Z,75.30
2023-05-19T11:55:46.864Z,73.80
2023-05-19T11:58:14.178Z,73.40
2023-05-19T12:00:42.506Z,72.10
2023-05-19T12:03:09.662Z,72.90
2023-05-19T12:05:43.144Z,72.20
2023-05-19T12:08:13.988Z,72.70
2023-05-19T12:10:40.980Z,72.70
2023-05-19T12:13:09.510Z,71.50
2023-05-19T12:15:36.675Z,71.80
2023-05-19T12:18:03.494Z,71.40
2023-05-19T12:20:35.989Z,70.50
2023-05-19T12:23:03.399Z,70.50
2023-05-19T12:25:31.245Z,69.90
2023-05-19T12:27:59.417Z,71.30
2023-05-19T12:30:30.567Z,67.90
2023-05-19T12:32:58.047Z,68.30
2023-05-19T12:35:34.543Z,67.10
2023-05-19T12:38:06.080Z,67.40
2023-05-19T12:40:37.108Z,67.70
2023-05-19T12:43:05.714Z,67.90
2023-05-19T12:45:42.366Z,68.40
2023-05-19T12:48:12.481Z,68.60
2023-05-19T12:50:39.450Z,68.40
2023-05-19T12:53:09.333Z,68.20
2023-05-19T12:55:43.426Z,68.10
2023-05-19T12:58:11.918Z,68.80
2023-05-19T13:00:43.827Z,69.50
2023-05-19T13:03:20.548Z,70.50
2023-05-19T13:05:50.418Z,70.60
2023-05-19T13:08:20.253Z,70.80
2023-05-19T13:10:49.020Z,69.90
2023-05-19T13:13:15.976Z,69.80
2023-05-19T13:15:45.126Z,70.90
2023-05-19T13:18:13.131Z,71.50
2023-05-19T13:20:41.573Z,71.40
2023-05-19T13:23:13.591Z,72.60
2023-05-19T13:25:41.507Z,72.60
2023-05-19T13:28:08.533Z,72.20
2023-05-19T13:30:37.012Z,71.70
2023-05-19T13:33:03.998Z,71.30
2023-05-19T13:35:36.759Z,71.10
2023-05-19T13:38:05.423Z,71.20
2023-05-19T13:40:35.399Z,71.20
2023-05-19T13:43:03.646Z,71.80
2023-05-19T13:45:30.761Z,72.30
2023-05-19T13:47:57.464Z,72.20
2023-05-19T13:50:24.304Z,71.90
2023-05-19T13:52:51.016Z,71.20
2023-05-19T13:55:17.921Z,71.60
2023-05-19T13:57:44.880Z,72.10
2023-05-19T14:00:11.891Z,72.50
2023-05-19T14:02:39.258Z,73.10
2023-05-19T14:05:07.288Z,73.50
2023-05-19T14:07:35.126Z,73.30
2023-05-19T14:10:03.039Z,72.90
2023-05-19T14:12:37.962Z,73.50
2023-05-19T14:15:11.582Z,73.60
2023-05-19T14:17:38.450Z,74.10
2023-05-19T14:20:05.689Z,74.50
2023-05-19T14:22:32.320Z,74.80
2023-05-19T14:25:00.408Z,74.70
2023-05-19T14:27:27.032Z,74.70
2023-05-19T14:29:53.919Z,74.80
2023-05-19T14:32:20.950Z,75.10
2023-05-19T14:34:47.893Z,74.40
2023-05-19T14:37:14.733Z,74.30
2023-05-19T14:39:41.371Z,73.70
2023-05-19T14:42:07.997Z,73.60
2023-05-19T14:44:34.745Z,73.20
2023-05-19T14:47:02.152Z,73.40
2023-05-19T14:49:28.903Z,74.10
2023-05-19T14:51:55.757Z,74.60
2023-05-19T14:54:22.652Z,74.40
2023-05-19T14:56:49.289Z,74.70
2023-05-19T14:59:15.939Z,75.10
2023-05-19T15:01:42.801Z,74.00
2023-05-19T15:04:09.565Z,74.30
2023-05-19T15:06:36.566Z,73.80
2023-05-19T15:09:03.292Z,74.10
2023-05-19T15:11:30.193Z,74.50
2023-05-19T15:13:56.968Z,74.40
2023-05-19T15:16:23.678Z,74.30
2023-05-19T15:18:51.732Z,74.90
2023-05-19T15:21:18.471Z,74.10
2023-05-19T15:23:45.210Z,73.90
2023-05-19T15:26:12.141Z,73.90
2023-05-19T15:28:38.866Z,74.10
2023-05-19T15:31:05.602Z,74.10
2023-05-19T15:33:32.287Z,74.50
2023-05-19T15:35:58.894Z,74.70
2023-05-19T15:40:52.371Z,75.10
2023-05-19T15:43:20.810Z,75.00
2023-05-19T15:45:48.199Z,74.90
2023-05-19T15:48:14.921Z,74.60
2023-05-19T15:50:41.614Z,75.30
2023-05-19T15:53:09.070Z,75.20
2023-05-19T15:55:35.874Z,75.30
2023-05-19T15:58:02.640Z,76.10
2023-05-19T16:00:29.333Z,76.30
2023-05-19T16:02:56.178Z,76.10
2023-05-19T16:05:23.045Z,75.90
2023-05-19T16:07:49.676Z,75.50
2023-05-19T16:10:16.470Z,75.40
2023-05-19T16:12:43.096Z,75.40
2023-05-19T16:15:10.079Z,75.30
2023-05-19T16:17:36.730Z,75.50
2023-05-19T16:20:03.941Z,75.00
2023-05-19T16:22:30.580Z,74.80
2023-05-19T16:24:57.351Z,75.00
2023-05-19T16:27:24.004Z,75.30
2023-05-19T16:29:50.716Z,75.30
2023-05-19T16:32:17.308Z,75.30
2023-05-19T16:34:44.237Z,75.60
2023-05-19T16:37:10.868Z,75.80
2023-05-19T16:39:37.510Z,75.60
2023-05-19T16:42:04.776Z,76.60
2023-05-19T16:44:31.443Z,76.90
2023-05-19T16:46:58.068Z,77.10
2023-05-19T16:49:24.722Z,77.30
2023-05-19T16:51:52.908Z,77.30
2023-05-19T16:54:19.805Z,77.20
2023-05-19T16:56:46.450Z,77.30
2023-05-19T16:59:13.729Z,77.80
2023-05-19T17:01:40.679Z,77.90
2023-05-19T17:04:07.426Z,78.20
2023-05-19T17:06:34.106Z,78.10
2023-05-19T17:09:00.808Z,78.10
2023-05-19T17:11:27.720Z,78.40
2023-05-19T17:13:54.433Z,78.40
2023-05-19T17:16:21.335Z,78.60
2023-05-19T17:18:48.104Z,78.90
2023-05-19T17:21:14.923Z,79.30
2023-05-19T17:23:41.841Z,79.70
2023-05-19T17:26:08.812Z,80.00
2023-05-19T17:28:35.661Z,80.10
2023-05-19T17:31:09.897Z,80.00
2023-05-19T17:33:36.781Z,80.20
2023-05-19T17:36:04.410Z,80.50
2023-05-19T17:38:33.829Z,80.70
2023-05-19T17:41:02.126Z,81.10
2023-05-19T17:43:29.531Z,81.00
2023-05-19T17:45:56.809Z,81.20
2023-05-19T17:48:25.841Z,81.00
2023-05-19T17:50:52.522Z,81.30
2023-05-19T17:53:19.409Z,81.70
2023-05-19T17:55:51.400Z,81.80
2023-05-19T17:58:19.185Z,81.30
2023-05-19T18:00:46.124Z,81.30
2023-05-19T18:03:13.165Z,80.80
2023-05-19T18:05:43.075Z,80.40
2023-05-19T18:08:10.385Z,80.30
2023-05-19T18:10:38.848Z,80.30
2023-05-19T18:13:06.839Z,80.50
2023-05-19T18:15:33.612Z,80.50
2023-05-19T18:18:01.204Z,80.60
2023-05-19T18:20:28.692Z,80.80
2023-05-19T18:22:55.351Z,81.20
2023-05-19T18:25:22.004Z,81.50
2023-05-19T18:27:48.647Z,81.90
2023-05-19T18:30:15.510Z,82.20
2023-05-19T18:32:42.356Z,83.00
2023-05-19T18:35:09.473Z,82.80
2023-05-19T18:37:36.307Z,83.20
2023-05-19T18:40:03.027Z,83.30
2023-05-19T18:42:29.744Z,83.80
2023-05-19T18:44:56.430Z,84.20
2023-05-19T18:47:23.159Z,84.80
2023-05-19T18:49:50.149Z,84.60
2023-05-19T18:52:18.931Z,84.90
2023-05-19T18:54:46.996Z,85.30
2023-05-19T18:57:14.464Z,85.60
2023-05-19T18:59:41.192Z,85.90
2023-05-19T19:02:07.840Z,86.10
2023-05-19T19:04:34.497Z,86.40
2023-05-19T19:07:01.480Z,86.70
2023-05-19T19:09:28.072Z,87.10
2023-05-19T19:11:54.719Z,87.40
2023-05-19T19:14:21.451Z,87.80
2023-05-19T19:16:48.159Z,88.00
2023-05-19T19:19:14.865Z,88.20
2023-05-19T19:21:41.836Z,88.50
2023-05-19T19:24:08.510Z,88.80
2023-05-19T19:26:35.166Z,89.00
2023-05-19T19:29:01.871Z,89.30
2023-05-19T19:31:33.185Z,89.50
2023-05-19T19:34:03.580Z,89.80
2023-05-19T19:36:30.327Z,90.00
2023-05-19T19:38:57.017Z,90.10
2023-05-19T19:41:24.959Z,90.20
2023-05-19T19:43:51.934Z,90.40
2023-05-19T19:46:18.651Z,90.50
2023-05-19T19:48:45.371Z,90.60
2023-05-19T19:51:12.141Z,90.80
2023-05-19T19:53:38.892Z,91.00
2023-05-19T19:56:06.162Z,91.10
2023-05-19T19:58:35.522Z,91.20
2023-05-19T20:01:03.318Z,91.40
2023-05-19T20:03:31.639Z,91.60
2023-05-19T20:05:58.684Z,91.60
2023-05-19T20:08:25.821Z,91.80
2023-05-19T20:10:52.676Z,91.90
2023-05-19T20:13:20.110Z,92.10
2023-05-19T20:15:47.264Z,92.20
2023-05-19T20:18:14.376Z,92.30
2023-05-19T20:20:41.631Z,92.40
2023-05-19T20:23:08.750Z,92.40
2023-05-19T20:25:53.659Z,92.50
2023-05-19T20:28:28.358Z,92.60
2023-05-19T20:30:54.951Z,92.90
2023-05-19T20:33:21.636Z,93.00
2023-05-19T20:35:48.227Z,93.10
2023-05-19T20:38:14.858Z,93.50
2023-05-19T20:40:41.555Z,93.60
2023-05-19T20:43:08.181Z,93.50
2023-05-19T20:45:40.000Z,93.60
2023-05-19T20:48:06.728Z,93.70
2023-05-19T20:50:33.527Z,93.90
2023-05-19T20:53:00.976Z,94.00
2023-05-19T20:55:27.593Z,94.20
2023-05-19T20:57:54.451Z,94.30
2023-05-19T21:00:21.380Z,94.40
2023-05-19T21:02:48.120Z,94.50
2023-05-19T21:05:14.781Z,94.70
2023-05-19T21:07:41.487Z,94.60
2023-05-19T21:10:08.522Z,95.00
2023-05-19T21:12:35.361Z,95.10
2023-05-19T21:15:03.654Z,95.20
2023-05-19T21:17:30.434Z,95.40
2023-05-19T21:19:59.559Z,95.60
2023-05-19T21:22:26.977Z,95.80
2023-05-19T21:24:54.375Z,96.00
2023-05-19T21:27:21.091Z,96.20
2023-05-19T21:29:51.491Z,96.30
2023-05-19T21:32:18.168Z,96.60
2023-05-19T21:34:45.164Z,96.80
2023-05-19T21:37:11.811Z,97.00
2023-05-19T21:39:38.404Z,97.30
2023-05-19T21:42:06.331Z,97.50
2023-05-19T21:44:33.046Z,97.90
2023-05-19T21:46:59.738Z,98.60
2023-05-19T21:49:26.491Z,99.10
2023-05-19T21:51:53.099Z,99.50
2023-05-19T21:54:19.689Z,99.90
2023-05-19T21:56:46.350Z,99.90
2023-05-19T21:59:12.975Z,99.90
2023-05-19T22:01:39.789Z,99.90
2023-05-19T22:04:06.511Z,99.90
2023-05-19T22:06:33.624Z,99.90
2023-05-19T22:09:02.265Z,99.90
2023-05-19T22:11:28.913Z,99.90
2023-05-19T22:13:55.687Z,99.90
2023-05-19T22:16:22.743Z,99.90
2023-05-19T22:18:49.424Z,99.90
2023-05-19T22:21:16.098Z,99.90
2023-05-19T22:23:43.934Z,99.90
2023-05-19T22:26:10.608Z,99.90
2023-05-19T22:28:37.216Z,99.90
2023-05-19T22:31:03.933Z,99.90
2023-05-19T22:33:30.913Z,99.90
2023-05-19T22:35:57.663Z,99.90
2023-05-19T22:38:24.296Z,99.90
2023-05-19T22:40:50.945Z,99.90
2023-05-19T22:43:17.615Z,99.90
2023-05-19T22:45:44.403Z,99.90
2023-05-19T22:48:11.478Z,99.90
2023-05-19T22:50:38.186Z,99.90
2023-05-19T22:53:04.818Z,99.90
2023-05-19T22:55:31.717Z,99.90
2023-05-19T22:57:58.535Z,99.90
2023-05-19T23:00:25.134Z,99.90
2023-05-19T23:02:51.812Z,99.90
2023-05-19T23:05:18.514Z,99.90
2023-05-19T23:07:45.138Z,99.90
2023-05-19T23:10:11.845Z,99.90
2023-05-19T23:12:40.043Z,99.90
2023-05-19T23:15:08.038Z,99.90
2023-05-19T23:17:34.773Z,99.90
2023-05-19T23:20:01.953Z,99.90
2023-05-19T23:22:28.601Z,99.90
2023-05-19T23:24:55.259Z,99.90
2023-05-19T23:27:21.901Z,99.90
2023-05-19T23:29:49.445Z,99.90
2023-05-19T23:32:16.076Z,99.90
2023-05-19T23:34:42.832Z,99.90
2023-05-19T23:37:09.724Z,99.90
2023-05-19T23:39:38.163Z,99.90
2023-05-19T23:42:05.720Z,99.90
2023-05-19T23:44:32.506Z,99.90
2023-05-19T23:46:59.268Z,99.90
2023-05-19T23:49:26.068Z,99.90
2023-05-19T23:51:52.741Z,99.90
2023-05-19T23:54:19.436Z,99.90
2023-05-19T23:56:46.076Z,99.90
2023-05-19T23:59:12.699Z,99.90
